HOURLY OBS INDEX

039

South Coast - Curtis

BUNDABERG AERO

Site: 039128
Alt: 30.8m
5km SSW of BUNDABERG


  Time     Wind        Temp  DP   Baro     Rain since   Rain past  Vis(m), Cloud(base in m), Weather
  local        km/h                         9am  last   hr   10m    
Thu 09:00    S 19/ 26  17.0  7.4  1024.3    0.0   0.0   0.0   0.0   10000 
Thu 09:30  SSE 19/ 30  18.3  8.6  1024.4    0.0   0.0   0.0   0.0   10000 
Thu 10:00  SSE 20/ 28  19.3  9.5  1024.1    0.0   0.0   0.0   0.0   10000 
Thu 10:30  SSE 20/ 28  20.3 10.1  1024.0    0.0   0.0   0.0   0.0   10000 
Thu 11:00  SSE 20/ 32  21.7 10.8  1023.8    0.0   0.0   0.0   0.0   10000 
Thu 11:30   SE 26/ 33  21.8 10.9  1023.4    0.0   0.0   0.0   0.0   10000 
Thu 12:00   SE 24/ 35  22.0 11.1  1023.1    0.0   0.0   0.0   0.0   10000|SC1110 
Thu 12:30   SE 20/ 32  21.3 10.5  1022.7    0.0   0.0   0.0   0.0   10000|SC1170 
Thu 13:00   SE 15/ 22  23.1 11.5  1022.1    0.0   0.0   0.0   0.0   10000|BR1230 
Thu 13:30   SE 20/ 30  21.5  9.7  1021.9    0.0   0.0   0.0   0.0   10000|SC1290 
Thu 14:00  ESE 20/ 30  22.1 11.5  1021.7    0.0   0.0   0.0   0.0   10000|BR1290 BR1470 BR2040 

GAYNDAH AIRPORT

Site: 039066
Alt: 110.9m
108km W of MARYBOROUGH


  Time     Wind        Temp  DP   Baro     Rain since   Rain past  Vis(m), Cloud(base in m), Weather
  local        km/h                         9am  last   hr   10m    
Thu 09:00    W  6/  7  12.9  5.8  1025.3    0.0   0.0   0.0   0.0   ----- 
Thu 09:30   NW  4/  4  15.7  5.9  1025.2    0.0   0.0   0.0   0.0   ----- 
Thu 10:00  ESE  2/  6  17.5  5.8  1025.1    0.0   0.0   0.0   0.0   ----- 
Thu 10:30    N  6/  9  19.4  6.5  1024.9    0.0   0.0   0.0   0.0   ----- 
Thu 11:00    E  7/ 11  20.7  7.0  1024.6    0.0   0.0   0.0   0.0   ----- 
Thu 11:30  ESE  9/ 22  21.6  6.3  1024.0    0.0   0.0   0.0   0.0   ----- 
Thu 12:00  ESE  9/ 17  22.0  5.0  1023.5    0.0   0.0   0.0   0.0   ----- 
Thu 12:30    S  9/ 19  22.5  3.1  1022.9    0.0   0.0   0.0   0.0   ----- 
Thu 13:00    S 11/ 19  23.0  3.0  1022.3    0.0   0.0   0.0   0.0   ----- 
Thu 13:30  SSE  6/ 11  22.9  1.9  1021.9    0.0   0.0   0.0   0.0   ----- 
Thu 14:00    S  7/ 15  23.3  1.0  1021.8    0.0   0.0   0.0   0.0   ----- 

GLADSTONE AIRPORT

Site: 039326
Alt: 16.6m
5km SW of GLADSTONE


  Time     Wind        Temp  DP   Baro     Rain since   Rain past  Vis(m), Cloud(base in m), Weather
  local        km/h                         9am  last   hr   10m    
Thu 09:00    S 13/ 19  18.2  7.9  1023.8    0.0   0.0   0.0   0.0   10000 
Thu 09:30    S  9/ 17  20.1  9.7  1023.7    0.0   0.0   0.0   0.0   10000|BR2190 
Thu 10:00  SSE 19/ 30  20.3  9.8  1023.5    0.0   0.0   0.0   0.0   10000|BR2250 
Thu 10:30  ESE 24/ 33  21.5 10.0  1023.3    0.0   0.0   0.0   0.0   10000|BR2250 
Thu 11:00   SE 22/ 30  21.7  9.9  1023.0    0.0   0.0   0.0   0.0   10000|SC2310 
Thu 11:30   SE 22/ 33  22.3 10.5  1022.9    0.0   0.0   0.0   0.0   10000 
Thu 12:00   SE 19/ 28  22.3 10.1  1022.5    0.0   0.0   0.0   0.0   10000|SC2370 
Thu 12:30  ESE 20/ 30  22.8  9.9  1021.9    0.0   0.0   0.0   0.0   10000 
Thu 13:00    E 22/ 32  23.0 10.4  1021.5    0.0   0.0   0.0   0.0   10000|SC2490 
Thu 13:30    E 24/ 35  22.9 10.3  1021.2    0.0   0.0   0.0   0.0   10000|BR2490 
Thu 14:00    E 24/ 33  22.6 12.5  1021.1    0.0   0.0   0.0   0.0   10000|SC2550 

GLADSTONE RADAR

Site: 039123
Alt: 74.5m
3km SSE of GLADSTONE


  Time     Wind        Temp  DP   Baro     Rain since   Rain past  Vis(m), Cloud(base in m), Weather
  local        km/h                         9am  last   hr   10m    
Thu 09:00  SSE 20/ 33  18.4  8.9  1023.7    0.0   0.0   0.0   0.0   ----- 
Thu 09:30  SSE 19/ 35  19.5  9.7  1023.6    0.0   0.0   0.0   0.0   ----- 
Thu 10:00  SSE 17/ 28  20.1 10.2  1023.5    0.0   0.0   0.0   0.0   ----- 
Thu 10:30   SE 17/ 28  21.4 10.6  1023.3    0.0   0.0   0.0   0.0   ----- 
Thu 11:00   SE 17/ 28  21.8 10.3  1023.1    0.0   0.0   0.0   0.0   ----- 
Thu 11:30   SE 17/ 32  22.5 10.6  1023.0    0.0   0.0   0.0   0.0   ----- 
Thu 12:00  ESE 20/ 35  22.7 10.8  1022.6    0.0   0.0   0.0   0.0   ----- 
Thu 12:30  ESE 20/ 32  23.0 11.1  1022.1    0.0   0.0   0.0   0.0   ----- 
Thu 13:00    E 22/ 39  24.1 11.8  1021.6    0.0   0.0   0.0   0.0   ----- 
Thu 13:30    E 24/ 32  23.8 13.4  1021.3    0.0   0.0   0.0   0.0   ----- 
Thu 14:00    E 24/ 35  22.7 12.6  1021.1    0.0   0.0   0.0   0.0   ----- 

HERON ISLAND RES STN

Site: 039122
Alt: 3.3m
80km ENE of GLADSTONE


  Time     Wind        Temp  DP   Baro     Rain since   Rain past  Vis(m), Cloud(base in m), Weather
  local        km/h                         9am  last   hr   10m    
Thu 09:00  SSE 30/ 45 --------  ------   ----  ----  ----  ----   ----- 
Thu 09:04  SSE 30/ 48 --------  ------   ----  ----  ----  ----   ----- 
Thu 10:00   SE 33/ 41 --------  ------   ----  ----  ----  ----   ----- 
Thu 10:16  SSE 30/ 48 --------  ------   ----  ----  ----  ----   ----- 
Thu 11:00  SSE 28/ 41 --------  ------   ----  ----  ----  ----   ----- 
Thu 12:00  SSE 30/ 45 --------  ------   ----  ----  ----  ----   ----- 
Thu 12:27  SSE 30/ 48 --------  ------   ----  ----  ----  ----   ----- 
Thu 13:00  SSE 32/ 46 --------  ------   ----  ----  ----  ----   ----- 
Thu 14:00   SE 32/ 46 --------  ------   ----  ----  ----  ----   ----- 

LADY ELLIOT ISLAND

Site: 039059
Alt: 3.6m
92km NNE of BUNDABERG


  Time     Wind        Temp  DP   Baro     Rain since   Rain past  Vis(m), Cloud(base in m), Weather
  local        km/h                         9am  last   hr   10m    
Thu 09:00  SSE 22/ 35  19.6 15.7  1023.2   ----  ----  ----   0.0   ----- 
Thu 09:30  SSE 26/ 37  20.2 15.6  1023.1    0.0  ----  ----   0.0   ----- 
Thu 10:00    S 24/ 35  20.2 16.0  1023.1    0.0   0.0  ----   0.0   ----- 
Thu 10:30  SSE 28/ 37  20.9 16.3  1022.9    0.0   0.0   0.0   0.0   ----- 
Thu 11:00  SSE 28/ 37  20.5 15.9  1022.9    0.0   0.0   0.0   0.0   ----- 
Thu 11:30  SSE 24/ 35  21.1 16.3  1022.7    0.0   0.0   0.0   0.0   ----- 
Thu 12:00  SSE 24/ 35  21.1 16.1  1022.4    0.0   0.0   0.0   0.0   ----- 
Thu 12:30  SSE 24/ 35  21.1 16.3  1022.1    0.0   0.0   0.0   0.0   ----- 
Thu 13:00  SSE 30/ 41  21.0 16.2  1021.6    0.0   0.0   0.0   0.0   ----- 
Thu 13:30  SSE 28/ 37  21.3 16.5  1021.3    0.0   0.0   0.0   0.0   ----- 
Thu 14:00  SSE 28/ 39  20.9 15.9  1021.0    0.0   0.0   0.0   0.0   ----- 

ROCKHAMPTON AERO

Site: 039083
Alt: 10.4m
3km WSW of ROCKHAMPTON


  Time     Wind        Temp  DP   Baro     Rain since   Rain past  Vis(m), Cloud(base in m), Weather
  local        km/h                         9am  last   hr   10m    
Thu 09:00   SE 11/ 19  17.6  7.1  1023.9    0.0   0.0   0.0   0.0  *10000|FE1200sc 
Thu 09:30   SE 15/ 22  19.0  7.8  1023.9    0.0   0.0   0.0   0.0   10000|BR2100 
Thu 10:00   SE 20/ 30  19.4  8.1  1023.5    0.0   0.0   0.0   0.0   10000|BR1740 OC2100 
Thu 10:30  ESE 17/ 26  19.5  8.5  1023.3    0.0   0.0   0.0   0.0   10000|OC1530 
Thu 11:00  ESE 20/ 30  20.7  9.6  1023.0    0.0   0.0   0.0   0.0   10000|OC1710 
Thu 11:30  ESE 17/ 26  21.0  9.6  1022.8    0.0   0.0   0.0   0.0   10000|BR1830 BR2220 
Thu 12:00  ESE 15/ 26  21.8 10.6  1022.3    0.0   0.0   0.0   0.0   10000|BR2130 OC2430 
Thu 12:30  ESE 19/ 30  21.9 11.0  1021.6    0.0   0.0   0.0   0.0   10000|BR1920 OC2220 OC2520 
Thu 13:00    E 19/ 30  22.4 11.5  1021.1    0.0   0.0   0.0   0.0  *10000|SC1200cu 
Thu 13:30    E 13/ 20  23.2 11.9  1020.8    0.0   0.0   0.0   0.0  *10000|SC1200cu 
Thu 14:00    E 13/ 20  22.5 11.9  1020.6    0.0   0.0   0.0   0.0  *10000|BR1200cu 

RUNDLE ISLAND

Site: 039322
Alt: 19.8m
34km N of GLADSTONE


  Time     Wind        Temp  DP   Baro     Rain since   Rain past  Vis(m), Cloud(base in m), Weather
  local        km/h                         9am  last   hr   10m    
Thu 09:00  SSE 33/ 39  17.9----  1023.2   ----  ----  ----  ----   ----- 
Thu 09:30  SSE 32/ 37  18.0----  1023.2   ----  ----  ----  ----   ----- 
Thu 10:00  SSE 28/ 32  18.3----  1023.1   ----  ----  ----  ----   ----- 
Thu 10:30  SSE 26/ 30  18.7----  1023.0   ----  ----  ----  ----   ----- 
Thu 11:00  SSE 30/ 35  19.1----  1022.8   ----  ----  ----  ----   ----- 
Thu 11:30  SSE 32/ 37  19.5----  1022.6   ----  ----  ----  ----   ----- 
Thu 12:00   SE 35/ 41  19.6----  1022.2   ----  ----  ----  ----   ----- 
Thu 12:30   SE 37/ 41  19.6----  1021.7   ----  ----  ----  ----   ----- 
Thu 13:00   SE 37/ 41  19.9----  1021.3   ----  ----  ----  ----   ----- 
Thu 13:30   SE 37/ 43  19.7----  1021.0   ----  ----  ----  ----   ----- 
Thu 14:00   SE 37/ 41  19.8----  1020.9   ----  ----  ----  ----   ----- 

THANGOOL AIRPORT

Site: 039089
Alt: 193.1m
13km SSE of BILOELA


  Time     Wind        Temp  DP   Baro     Rain since   Rain past  Vis(m), Cloud(base in m), Weather
  local        km/h                         9am  last   hr   10m    
Thu 09:00  ESE  9/ 13  15.0  5.2  1024.9    0.0   0.0   0.0   0.0   10000 
Thu 09:30  SSE  9/ 13  16.4  5.7  1024.9    0.0   0.0   0.0   0.0   10000 
Thu 10:00   SE 13/ 17  18.3  6.8  1024.6    0.0   0.0   0.0   0.0   10000 
Thu 10:30  ESE 20/ 26  20.1  8.4  1024.3    0.0   0.0   0.0   0.0   10000 
Thu 11:00    E 22/ 32  21.2  8.5  1024.0    0.0   0.0   0.0   0.0   10000 
Thu 11:30  ESE 22/ 32  21.0  8.0  1023.7    0.0   0.0   0.0   0.0   10000 
Thu 12:00  ESE 19/ 28  21.8  6.9  1023.0    0.0   0.0   0.0   0.0   10000 
Thu 12:30   SE 19/ 30  22.5  6.7  1022.6    0.0   0.0   0.0   0.0   10000|SC2160 
Thu 13:00  ESE 17/ 26  22.9  5.8  1021.9    0.0   0.0   0.0   0.0   10000 
Thu 13:30  ESE 17/ 26  22.5  5.4  1021.6    0.0   0.0   0.0   0.0   10000 
Thu 14:00   SE 17/ 24  23.1  5.5  1021.4    0.0   0.0   0.0   0.0   10000|SC1860